ADDS METAR Data INFO
IDs: Format: Raw Decoded Include TAF

Data at: 2221 UTC 24 Jun 2018

KW75 242215Z AUTO 34012G29KT 10SM SCT031 BKN050 OVC120 26/23 A2988 RMK AO1 T02600229
KW75 242155Z AUTO 00000KT 10SM SCT090 BKN120 29/26 A2985 RMK AO1 T02920263
KW75 242135Z AUTO 00000KT 10SM CLR 30/25 A2984 RMK AO1 T02950254
KW75 242115Z AUTO 00000KT 10SM SCT045 SCT050 SCT100 30/25 A2985 RMK AO1 T03010251
KW75 242055Z AUTO 00000KT 10SM BKN045 BKN100 31/24 A2985 RMK AO1 T03080243
KW75 242035Z AUTO 21004KT 10SM SCT043 SCT050 32/24 A2984 RMK AO1 T03180243
KW75 242015Z AUTO 22004KT 10SM SCT045 SCT055 32/24 A2983 RMK AO1 T03230242
KW75 241955Z AUTO 25005KT 10SM CLR 32/25 A2983 RMK AO1 T03180245
KW75 241935Z AUTO 22003KT 10SM SCT046 32/23 A2984 RMK AO1 T03180232
KW75 241915Z AUTO 24004KT 10SM SCT046 32/24 A2984 RMK AO1 T03160238
KW75 241855Z AUTO 25005KT 10SM SCT046 32/23 A2985 RMK AO1 T03190226
KW75 241835Z AUTO 00000KT 10SM SCT036 SCT046 SCT055 32/24 A2986 RMK AO1 T03160238
KW75 241815Z AUTO 00000KT 10SM SCT036 BKN046 BKN055 30/26 A2986 RMK AO1 T02990262
KW75 241755Z AUTO 36003KT 10SM SCT031 SCT038 30/28 A2987 RMK AO1 T03030276 10307 20262
KW75 241735Z AUTO 03003KT 10SM SCT029 SCT036 31/27 A2987 RMK AO1 T03060273
KW75 241715Z AUTO 00000KT 10SM CLR 30/26 A2987 RMK AO1 T03020262
KW75 241655Z AUTO 00000KT 10SM CLR 30/27 A2987 RMK AO1 T03040274
KW75 241635Z AUTO 00000KT 10SM SCT090 SCT110 29/27 A2987 RMK AO1 T02910265
KW75 241615Z AUTO 00000KT 10SM BKN100 OVC110 28/27 A2988 RMK AO1 T02830265
KW75 241555Z AUTO 00000KT 10SM BKN100 OVC120 28/26 A2989 RMK AO1 T02840262
KW75 241535Z AUTO 20003KT 10SM BKN110 29/26 A2988 RMK AO1 T02860264
KW75 241515Z AUTO 20005KT 10SM SCT019 BKN100 29/26 A2988 RMK AO1 T02870262
KW75 241455Z AUTO 00000KT 10SM SCT019 BKN110 29/27 A2988 RMK AO1 T02890265
KW75 241435Z AUTO 00000KT 10SM CLR 29/27 A2988 RMK AO1 T02870266
KW75 241415Z AUTO 00000KT 10SM CLR 28/26 A2987 RMK AO1 T02790264
KW75 241355Z AUTO 00000KT 10SM CLR 28/26 A2988 RMK AO1 T02820263
KW75 241335Z AUTO 00000KT 10SM SCT095 28/26 A2988 RMK AO1 T02800262
KW75 241315Z AUTO 32003KT 10SM BKN095 28/27 A2988 RMK AO1 T02750265
KW75 241255Z AUTO 30003KT 10SM CLR 28/26 A2988 RMK AO1 T02770259
KW75 241235Z AUTO 24003KT 10SM SCT120 27/26 A2988 RMK AO1 T02700257
KW75 241215Z AUTO 00000KT 10SM CLR 27/26 A2987 RMK AO1 T02680259
KW75 241155Z AUTO 00000KT 10SM CLR 26/26 A2987 RMK AO1 70050 T02610259 10261 20236
KW75 241135Z AUTO 20004KT 10SM CLR 25/25 A2987 RMK AO1 T02520252
KW75 241115Z AUTO 20003KT 10SM CLR 25/25 A2987 RMK AO1 T02530253
KW75 241055Z AUTO 00000KT 10SM CLR 25/25 A2986 RMK AO1 T02470247
KW75 241035Z AUTO 21003KT 10SM CLR 24/24 A2986 RMK AO1 T02400240
KW75 241015Z AUTO 21004KT 10SM CLR 24/24 A2986 RMK AO1 T02360236
KW75 240955Z AUTO 00000KT 10SM CLR 24/24 A2985 RMK AO1 T02380238
KW75 240935Z AUTO 21003KT 10SM CLR 24/24 A2985 RMK AO1 T02370237
KW75 240915Z AUTO 21004KT 10SM SCT095 24/24 A2984 RMK AO1 T02370237
KW75 240855Z AUTO 21004KT 10SM SCT095 24/24 A2984 RMK AO1 T02370237
KW75 240835Z AUTO 21005KT 10SM SCT060 BKN095 24/24 A2984 RMK AO1 T02400240
KW75 240815Z AUTO 21006KT 10SM BKN095 24/24 A2985 RMK AO1 T02400240
KW75 240755Z AUTO 21005KT 10SM SCT095 24/24 A2985 RMK AO1 T02400240
KW75 240735Z AUTO 21006KT 10SM CLR 24/24 A2984 RMK AO1 T02380238
KW75 240715Z AUTO 20005KT 10SM CLR 24/24 A2984 RMK AO1 T02400240
KW75 240655Z AUTO 20005KT 10SM CLR 24/24 A2984 RMK AO1 T02400240
KW75 240635Z AUTO 20006KT 10SM CLR 24/24 A2984 RMK AO1 T02400240
KW75 240615Z AUTO 20004KT 10SM CLR 24/24 A2984 RMK AO1 T02420242
KW75 240555Z AUTO 20005KT 10SM CLR 25/25 A2984 RMK AO1 T02450245 10277 20242
KW75 240535Z AUTO 21004KT 10SM CLR 25/25 A2984 RMK AO1 T02460246
KW75 240515Z AUTO 20005KT 10SM CLR 25/25 A2984 RMK AO1 T02460246
KW75 240455Z AUTO 21004KT 10SM CLR 25/25 A2984 RMK AO1 T02470247 403010214
KW75 240435Z AUTO 21004KT 10SM CLR 25/25 A2984 RMK AO1 T02460246
KW75 240415Z AUTO 21004KT 10SM CLR 25/25 A2984 RMK AO1 T02450245
KW75 240355Z AUTO 19003KT 10SM CLR 24/24 A2984 RMK AO1 T02430243
KW75 240335Z AUTO 21003KT 10SM CLR 25/25 A2984 RMK AO1 T02460246
KW75 240315Z AUTO 21004KT 10SM CLR 25/25 A2984 RMK AO1 T02470247
KW75 240255Z AUTO 20003KT 10SM CLR 25/25 A2984 RMK AO1 T02470247
KW75 240235Z AUTO 20003KT 10SM CLR 25/25 A2984 RMK AO1 T02480248
KW75 240215Z AUTO 20003KT 10SM CLR 25/25 A2984 RMK AO1 T02510251
KW75 240155Z AUTO 21003KT 10SM CLR 25/25 A2983 RMK AO1 T02530253
KW75 240135Z AUTO 20004KT 10SM CLR 26/26 A2982 RMK AO1 T02550255
KW75 240115Z AUTO 20003KT 10SM CLR 26/26 A2981 RMK AO1 T02560256
KW75 240055Z AUTO 00000KT 10SM CLR 26/26 A2980 RMK AO1 T02580258
KW75 240035Z AUTO 00000KT 10SM CLR 26/26 A2980 RMK AO1 T02620262
KW75 240015Z AUTO 00000KT 10SM CLR 27/27 A2980 RMK AO1 T02700266
KW75 232355Z AUTO 00000KT 10SM SCT032 SCT039 28/27 A2980 RMK AO1 60050 T02790265 10293 20227
KW75 232335Z AUTO 21003KT 10SM SCT038 28/27 A2979 RMK AO1 T02830265
KW75 232315Z AUTO 20004KT 10SM SCT034 SCT041 28/27 A2979 RMK AO1 T02830265
KW75 232255Z AUTO 19005KT 10SM SCT034 29/26 A2978 RMK AO1 T02910258
KW75 232235Z AUTO 19003KT 10SM CLR 29/26 A2977 RMK AO1 T02920259
KW75 232215Z AUTO 20005KT 10SM SCT022 29/26 A2977 RMK AO1 T02900261
KW75 232155Z AUTO 19004KT 10SM SCT022 SCT027 29/26 A2977 RMK AO1 T02850259
KW75 232135Z AUTO 19003KT 10SM SCT019 SCT027 29/27 A2977 RMK AO1 T02900265
KW75 232115Z AUTO 00000KT 10SM CLR 29/27 A2978 RMK AO1 T02860265
KW75 232055Z AUTO 23003KT 10SM CLR 28/26 A2979 RMK AO1 60050 T02760264
KW75 232035Z AUTO 01005KT 10SM CLR 27/26 A2978 RMK AO1 T02710260
KW75 232015Z AUTO 28005KT 10SM SCT040 SCT100 SCT120 27/26 A2978 RMK AO1 T02650258
KW75 231955Z AUTO 00000KT 10SM SCT040 SCT050 BKN065 24/24 A2980 RMK AO1 P0012 T02420242
KW75 231935Z AUTO 16004KT 10SM SCT035 SCT055 BKN065 24/24 A2979 RMK AO1 P0012 T02380238
KW75 231915Z AUTO 00000KT 1 3/4SM SCT015 BKN036 OVC050 23/23 A2981 RMK AO1 VIS 1V5 P0012 T02290229
KW75 231855Z AUTO 24007G22KT 200V280 3/4SM OVC017 23/23 A2982 RMK AO1 P0032 T02290229
KW75 231835Z AUTO 33005KT 7SM BKN033 BKN046 OVC075 27/26 A2978 RMK AO1 P0001 T02730260
KW75 231815Z AUTO 00000KT 10SM SCT033 BKN050 BKN075 28/26 A2979 RMK AO1 T02840255
KW75 231755Z AUTO 21003KT 10SM SCT030 SCT044 SCT095 29/25 A2980 RMK AO1 T02920252 10301 20232
KW75 231735Z AUTO 21007KT 190V250 10SM SCT024 SCT029 SCT039 30/25 A2981 RMK AO1 T03010253
KW75 231715Z AUTO 26005KT 10SM SCT026 SCT033 29/25 A2982 RMK AO1 T02890249
KW75 231655Z AUTO 00000KT 10SM SCT024 SCT029 29/26 A2982 RMK AO1 T02900258
KW75 231635Z AUTO 34005KT 10SM SCT022 SCT029 28/25 A2982 RMK AO1 T02810254
KW75 231615Z AUTO 26003KT 10SM SCT020 SCT029 SCT100 28/25 A2983 RMK AO1 T02840251
KW75 231555Z AUTO 28006KT 10SM BKN018 BKN100 28/25 A2983 RMK AO1 T02770251
KW75 231535Z AUTO 25006KT 10SM SCT016 SCT022 SCT110 27/25 A2983 RMK AO1 T02670246
KW75 231515Z AUTO 24007KT 10SM SCT014 BKN100 26/25 A2984 RMK AO1 T02640250
KW75 231455Z AUTO 26004KT 10SM BKN014 OVC100 26/25 A2984 RMK AO1 T02560252
KW75 231435Z AUTO 26003KT 10SM BKN010 BKN014 OVC100 26/25 A2983 RMK AO1 T02550253
KW75 231415Z AUTO 23005KT 10SM OVC008 25/25 A2983 RMK AO1 T02490249
KW75 231355Z AUTO 00000KT 10SM BKN008 BKN031 OVC120 25/25 A2983 RMK AO1 T02460246
KW75 231335Z AUTO 21004KT 10SM OVC008 25/25 A2983 RMK AO1 T02450245
KW75 231315Z AUTO 00000KT 10SM OVC010 24/24 A2983 RMK AO1 T02420242
KW75 231255Z AUTO 23003KT 10SM OVC010 24/24 A2982 RMK AO1 T02410241
KW75 231235Z AUTO 22003KT 10SM BKN010 24/24 A2982 RMK AO1 T02400240
KW75 231215Z AUTO 23004KT 10SM SCT012 24/24 A2982 RMK AO1 T02400240
KW75 231155Z AUTO 00000KT 10SM CLR 23/23 A2982 RMK AO1 70012 T02330233 10233 20214
KW75 231135Z AUTO 00000KT 10SM SCT110 23/23 A2981 RMK AO1 T02250225
KW75 231115Z AUTO 00000KT 10SM SCT110 22/22 A2981 RMK AO1 T02180218
KW75 231055Z AUTO 00000KT 10SM SCT110 22/22 A2981 RMK AO1 T02170217
KW75 231035Z AUTO 00000KT 10SM SCT110 22/22 A2981 RMK AO1 T02170217